sensor_id;sensor_type;location;lat;lon;timestamp;pressure;altitude;pressure_sealevel;temperature;humidity
8280;BME280;8335;42.646;23.380;2023-06-05T00:02:24;145268.16;;;14.95;100.00
8280;BME280;8335;42.646;23.380;2023-06-05T00:04:51;145269.41;;;14.96;100.00
8280;BME280;8335;42.646;23.380;2023-06-05T00:07:18;145274.38;;;14.98;100.00
8280;BME280;8335;42.646;23.380;2023-06-05T00:09:45;145273.13;;;14.97;100.00
8280;BME280;8335;42.646;23.380;2023-06-05T00:12:13;145276.88;;;14.99;100.00
8280;BME280;8335;42.646;23.380;2023-06-05T00:14:42;145276.88;;;14.99;100.00
8280;BME280;8335;42.646;23.380;2023-06-05T00:17:09;145271.88;;;14.97;100.00
8280;BME280;8335;42.646;23.380;2023-06-05T00:19:36;145269.41;;;14.96;100.00
8280;BME280;8335;42.646;23.380;2023-06-05T00:22:03;145271.88;;;14.97;100.00
8280;BME280;8335;42.646;23.380;2023-06-05T00:24:29;145274.38;;;14.98;100.00
8280;BME280;8335;42.646;23.380;2023-06-05T00:26:56;145279.34;;;15.00;100.00
8280;BME280;8335;42.646;23.380;2023-06-05T00:29:24;145281.88;;;15.01;100.00
8280;BME280;8335;42.646;23.380;2023-06-05T00:31:51;145283.13;;;15.01;100.00
8280;BME280;8335;42.646;23.380;2023-06-05T00:34:19;145288.09;;;15.03;100.00
8280;BME280;8335;42.646;23.380;2023-06-05T00:36:45;145285.63;;;15.02;100.00
8280;BME280;8335;42.646;23.380;2023-06-05T00:39:15;145281.88;;;15.01;100.00
8280;BME280;8335;42.646;23.380;2023-06-05T00:41:44;145283.13;;;15.01;100.00
8280;BME280;8335;42.646;23.380;2023-06-05T00:44:11;145283.13;;;15.01;100.00
8280;BME280;8335;42.646;23.380;2023-06-05T00:46:40;145279.34;;;15.00;100.00
8280;BME280;8335;42.646;23.380;2023-06-05T00:49:08;145280.63;;;15.00;100.00
8280;BME280;8335;42.646;23.380;2023-06-05T00:51:35;145283.13;;;15.01;100.00
8280;BME280;8335;42.646;23.380;2023-06-05T00:54:03;145279.34;;;15.00;100.00
8280;BME280;8335;42.646;23.380;2023-06-05T00:56:31;145261.88;;;14.93;100.00
8280;BME280;8335;42.646;23.380;2023-06-05T00:58:58;145253.19;;;14.89;100.00
8280;BME280;8335;42.646;23.380;2023-06-05T01:01:25;145258.16;;;14.91;100.00
8280;BME280;8335;42.646;23.380;2023-06-05T01:03:55;145261.88;;;14.93;100.00
8280;BME280;8335;42.646;23.380;2023-06-05T01:06:24;145258.16;;;14.91;100.00
8280;BME280;8335;42.646;23.380;2023-06-05T01:08:52;145209.50;;;14.71;100.00
8280;BME280;8335;42.646;23.380;2023-06-05T01:11:24;145265.66;;;14.94;100.00
8280;BME280;8335;42.646;23.380;2023-06-05T01:14:00;145280.63;;;15.00;100.00
8280;BME280;8335;42.646;23.380;2023-06-05T01:16:28;145274.38;;;14.98;100.00
8280;BME280;8335;42.646;23.380;2023-06-05T01:19:00;145266.91;;;14.95;100.00
8280;BME280;8335;42.646;23.380;2023-06-05T01:21:29;145256.91;;;14.91;100.00
8280;BME280;8335;42.646;23.380;2023-06-05T01:23:57;145258.16;;;14.91;100.00
8280;BME280;8335;42.646;23.380;2023-06-05T01:26:30;145251.94;;;14.89;100.00
8280;BME280;8335;42.646;23.380;2023-06-05T01:29:01;145251.94;;;14.89;100.00
8280;BME280;8335;42.646;23.380;2023-06-05T01:31:31;145243.19;;;14.85;100.00
8280;BME280;8335;42.646;23.380;2023-06-05T01:34:05;145230.75;;;14.80;100.00
8280;BME280;8335;42.646;23.380;2023-06-05T01:36:37;145229.50;;;14.79;100.00
8280;BME280;8335;42.646;23.380;2023-06-05T01:39:07;145195.81;;;14.66;100.00
8280;BME280;8335;42.646;23.380;2023-06-05T01:41:36;145231.97;;;14.80;100.00
8280;BME280;8335;42.646;23.380;2023-06-05T01:44:03;145226.97;;;14.78;100.00
8280;BME280;8335;42.646;23.380;2023-06-05T01:46:33;145221.97;;;14.76;100.00
8280;BME280;8335;42.646;23.380;2023-06-05T01:49:01;145217.00;;;14.74;100.00
8280;BME280;8335;42.646;23.380;2023-06-05T01:51:28;145215.75;;;14.74;100.00
8280;BME280;8335;42.646;23.380;2023-06-05T01:53:55;145209.50;;;14.71;100.00
8280;BME280;8335;42.646;23.380;2023-06-05T01:56:24;145202.03;;;14.68;100.00
8280;BME280;8335;42.646;23.380;2023-06-05T01:58:51;145197.06;;;14.66;100.00
8280;BME280;8335;42.646;23.380;2023-06-05T02:01:18;145194.56;;;14.65;100.00
8280;BME280;8335;42.646;23.380;2023-06-05T02:03:48;145195.81;;;14.66;100.00
8280;BME280;8335;42.646;23.380;2023-06-05T02:06:15;145197.06;;;14.66;100.00
8280;BME280;8335;42.646;23.380;2023-06-05T02:08:42;145207.00;;;14.70;100.00
8280;BME280;8335;42.646;23.380;2023-06-05T02:11:09;145204.53;;;14.69;100.00
8280;BME280;8335;42.646;23.380;2023-06-05T02:13:39;145192.03;;;14.64;100.00
8280;BME280;8335;42.646;23.380;2023-06-05T02:16:09;145187.06;;;14.62;100.00
8280;BME280;8335;42.646;23.380;2023-06-05T02:18:36;145167.13;;;14.54;100.00
8280;BME280;8335;42.646;23.380;2023-06-05T02:21:03;145174.59;;;14.57;100.00
8280;BME280;8335;42.646;23.380;2023-06-05T02:23:31;145155.88;;;14.49;100.00
8280;BME280;8335;42.646;23.380;2023-06-05T02:25:58;145145.88;;;14.45;100.00
8280;BME280;8335;42.646;23.380;2023-06-05T02:28:24;145143.41;;;14.44;100.00
8280;BME280;8335;42.646;23.380;2023-06-05T02:30:54;145124.69;;;14.37;100.00
8280;BME280;8335;42.646;23.380;2023-06-05T02:33:20;145145.88;;;14.45;100.00
8280;BME280;8335;42.646;23.380;2023-06-05T02:35:48;145149.66;;;14.47;100.00
8280;BME280;8335;42.646;23.380;2023-06-05T02:38:15;145139.63;;;14.43;100.00
8280;BME280;8335;42.646;23.380;2023-06-05T02:40:42;145154.63;;;14.49;100.00
8280;BME280;8335;42.646;23.380;2023-06-05T02:43:09;145144.63;;;14.45;100.00
8280;BME280;8335;42.646;23.380;2023-06-05T02:45:36;145110.97;;;14.31;100.00
8280;BME280;8335;42.646;23.380;2023-06-05T02:48:05;145152.16;;;14.48;100.00
8280;BME280;8335;42.646;23.380;2023-06-05T02:50:32;145148.41;;;14.46;100.00
8280;BME280;8335;42.646;23.380;2023-06-05T02:52:58;145150.91;;;14.47;100.00
8280;BME280;8335;42.646;23.380;2023-06-05T02:55:25;145159.66;;;14.51;100.00
8280;BME280;8335;42.646;23.380;2023-06-05T02:57:54;145170.84;;;14.55;100.00
8280;BME280;8335;42.646;23.380;2023-06-05T03:00:22;145100.97;;;14.27;100.00
8280;BME280;8335;42.646;23.380;2023-06-05T03:02:51;145182.09;;;14.60;100.00
8280;BME280;8335;42.646;23.380;2023-06-05T03:05:19;145177.13;;;14.58;100.00
8280;BME280;8335;42.646;23.380;2023-06-05T03:07:50;145180.84;;;14.59;100.00
8280;BME280;8335;42.646;23.380;2023-06-05T03:10:18;145198.31;;;14.67;100.00
8280;BME280;8335;42.646;23.380;2023-06-05T03:12:45;145217.00;;;14.74;100.00
8280;BME280;8335;42.646;23.380;2023-06-05T03:15:12;145236.97;;;14.82;100.00
8280;BME280;8335;42.646;23.380;2023-06-05T03:17:39;145314.28;;;15.14;100.00
8280;BME280;8335;42.646;23.380;2023-06-05T03:20:07;145374.19;;;15.38;100.00
8280;BME280;8335;42.646;23.380;2023-06-05T03:22:36;145427.84;;;15.60;100.00
8280;BME280;8335;42.646;23.380;2023-06-05T03:25:04;145490.28;;;15.86;100.00
8280;BME280;8335;42.646;23.380;2023-06-05T03:27:31;145530.28;;;16.02;100.00
8280;BME280;8335;42.646;23.380;2023-06-05T03:29:58;145586.44;;;16.25;100.00
8280;BME280;8335;42.646;23.380;2023-06-05T03:32:25;145652.63;;;16.52;100.00
8280;BME280;8335;42.646;23.380;2023-06-05T03:34:51;145735.09;;;16.86;100.00
8280;BME280;8335;42.646;23.380;2023-06-05T03:37:18;145813.81;;;17.18;100.00
8280;BME280;8335;42.646;23.380;2023-06-05T03:39:46;145905.03;;;17.55;100.00
8280;BME280;8335;42.646;23.380;2023-06-05T03:42:13;145987.59;;;17.88;100.00
8280;BME280;8335;42.646;23.380;2023-06-05T03:44:40;146047.59;;;18.13;100.00
8280;BME280;8335;42.646;23.380;2023-06-05T03:47:07;146120.13;;;18.42;100.00
8280;BME280;8335;42.646;23.380;2023-06-05T03:49:33;146226.50;;;18.86;99.66
8280;BME280;8335;42.646;23.380;2023-06-05T03:52:01;146319.13;;;19.23;97.10
8280;BME280;8335;42.646;23.380;2023-06-05T03:54:28;146390.47;;;19.52;95.74
8280;BME280;8335;42.646;23.380;2023-06-05T03:56:59;146464.34;;;19.83;93.99
8280;BME280;8335;42.646;23.380;2023-06-05T03:59:27;146538.22;;;20.13;92.68
8280;BME280;8335;42.646;23.380;2023-06-05T04:01:55;146564.53;;;20.23;90.77
8280;BME280;8335;42.646;23.380;2023-06-05T04:04:22;146640.97;;;20.54;90.48
8280;BME280;8335;42.646;23.380;2023-06-05T04:06:49;146722.41;;;20.87;89.17
8280;BME280;8335;42.646;23.380;2023-06-05T04:09:16;146795.09;;;21.17;87.08
8280;BME280;8335;42.646;23.380;2023-06-05T04:11:44;146780.03;;;21.11;86.25
8280;BME280;8335;42.646;23.380;2023-06-05T04:14:12;146872.81;;;21.49;85.29
8280;BME280;8335;42.646;23.380;2023-06-05T04:16:40;146985.66;;;21.94;84.15
8280;BME280;8335;42.646;23.380;2023-06-05T04:19:09;147117.38;;;22.48;82.33
8280;BME280;8335;42.646;23.380;2023-06-05T04:21:36;147252.91;;;23.03;79.70
8280;BME280;8335;42.646;23.380;2023-06-05T04:24:04;147437.44;;;23.78;76.63
8280;BME280;8335;42.646;23.380;2023-06-05T04:26:32;147563.00;;;24.29;72.39
8280;BME280;8335;42.646;23.380;2023-06-05T04:29:00;147697.47;;;24.83;69.51
8280;BME280;8335;42.646;23.380;2023-06-05T04:31:30;147791.72;;;25.21;67.88
8280;BME280;8335;42.646;23.380;2023-06-05T04:33:57;147790.47;;;25.21;67.35
8280;BME280;8335;42.646;23.380;2023-06-05T04:36:27;147736.41;;;24.99;67.55
8280;BME280;8335;42.646;23.380;2023-06-05T04:38:54;147756.53;;;25.07;68.18
8280;BME280;8335;42.646;23.380;2023-06-05T04:41:21;147908.63;;;25.69;67.17
8280;BME280;8335;42.646;23.380;2023-06-05T04:43:48;148119.97;;;26.54;62.67
8280;BME280;8335;42.646;23.380;2023-06-05T04:46:15;148247.06;;;27.06;60.79
8280;BME280;8335;42.646;23.380;2023-06-05T04:48:43;148328.84;;;27.39;58.89
8280;BME280;8335;42.646;23.380;2023-06-05T04:51:10;148278.50;;;27.19;58.32
8280;BME280;8335;42.646;23.380;2023-06-05T04:53:37;148333.88;;;27.41;58.28
8280;BME280;8335;42.646;23.380;2023-06-05T04:56:04;148420.75;;;27.76;56.62
8280;BME280;8335;42.646;23.380;2023-06-05T04:58:31;148540.38;;;28.24;55.38
8280;BME280;8335;42.646;23.380;2023-06-05T05:00:58;148396.81;;;27.66;56.05
8280;BME280;8335;42.646;23.380;2023-06-05T05:03:30;148345.22;;;27.46;56.66
8280;BME280;8335;42.646;23.380;2023-06-05T05:05:58;148195.41;;;26.85;58.99
8280;BME280;8335;42.646;23.380;2023-06-05T05:08:25;148164.00;;;26.72;59.30
8280;BME280;8335;42.646;23.380;2023-06-05T05:10:53;148069.59;;;26.34;60.68
8280;BME280;8335;42.646;23.380;2023-06-05T05:13:20;148015.53;;;26.12;61.66
8280;BME280;8335;42.646;23.380;2023-06-05T05:15:47;148072.09;;;26.35;61.89
8280;BME280;8335;42.646;23.380;2023-06-05T05:18:18;148192.91;;;26.84;60.61
8280;BME280;8335;42.646;23.380;2023-06-05T05:20:45;148302.41;;;27.28;58.52
8280;BME280;8335;42.646;23.380;2023-06-05T05:23:14;148195.41;;;26.85;58.70
8280;BME280;8335;42.646;23.380;2023-06-05T05:25:41;148209.28;;;26.91;58.82
8280;BME280;8335;42.646;23.380;2023-06-05T05:28:08;148236.97;;;27.02;59.08
8280;BME280;8335;42.646;23.380;2023-06-05T05:30:35;148253.38;;;27.08;58.53
8280;BME280;8335;42.646;23.380;2023-06-05T05:33:02;148317.50;;;27.34;57.77
8280;BME280;8335;42.646;23.380;2023-06-05T05:35:29;148128.78;;;26.58;59.88
8280;BME280;8335;42.646;23.380;2023-06-05T05:37:57;148272.25;;;27.16;58.42
8280;BME280;8335;42.646;23.380;2023-06-05T05:40:25;148218.09;;;26.94;59.28
8280;BME280;8335;42.646;23.380;2023-06-05T05:42:52;148236.97;;;27.02;59.44
8280;BME280;8335;42.646;23.380;2023-06-05T05:45:19;148382.97;;;27.61;58.53
8280;BME280;8335;42.646;23.380;2023-06-05T05:47:45;148609.69;;;28.52;55.83
8280;BME280;8335;42.646;23.380;2023-06-05T05:50:12;148671.38;;;28.77;54.21
8280;BME280;8335;42.646;23.380;2023-06-05T05:52:39;148576.94;;;28.39;55.66
8280;BME280;8335;42.646;23.380;2023-06-05T05:55:08;148342.72;;;27.45;57.89
8280;BME280;8335;42.646;23.380;2023-06-05T05:57:37;148160.19;;;26.71;59.66
8280;BME280;8335;42.646;23.380;2023-06-05T06:00:04;148156.44;;;26.69;61.76
8280;BME280;8335;42.646;23.380;2023-06-05T06:02:37;148079.69;;;26.38;61.11
8280;BME280;8335;42.646;23.380;2023-06-05T06:05:04;148097.34;;;26.45;62.40
8280;BME280;8335;42.646;23.380;2023-06-05T06:07:32;148156.44;;;26.69;60.01
8280;BME280;8335;42.646;23.380;2023-06-05T06:09:58;148169.03;;;26.74;60.08
8280;BME280;8335;42.646;23.380;2023-06-05T06:12:25;148192.91;;;26.84;60.06
8280;BME280;8335;42.646;23.380;2023-06-05T06:14:54;148088.50;;;26.42;60.12
8280;BME280;8335;42.646;23.380;2023-06-05T06:17:21;148021.81;;;26.15;60.69
8280;BME280;8335;42.646;23.380;2023-06-05T06:19:49;147987.91;;;26.01;62.54
8280;BME280;8335;42.646;23.380;2023-06-05T06:22:15;147892.28;;;25.62;62.98
8280;BME280;8335;42.646;23.380;2023-06-05T06:24:42;147730.13;;;24.96;65.69
8280;BME280;8335;42.646;23.380;2023-06-05T06:27:09;147662.28;;;24.69;66.03
8280;BME280;8335;42.646;23.380;2023-06-05T06:29:46;147886.00;;;25.60;62.93
8280;BME280;8335;42.646;23.380;2023-06-05T06:32:15;147803.06;;;25.26;63.73
8280;BME280;8335;42.646;23.380;2023-06-05T06:34:42;147824.41;;;25.35;62.71
8280;BME280;8335;42.646;23.380;2023-06-05T06:37:10;147798.03;;;25.24;63.86
8280;BME280;8335;42.646;23.380;2023-06-05T06:39:37;147791.72;;;25.21;64.11
8280;BME280;8335;42.646;23.380;2023-06-05T06:42:05;147940.13;;;25.82;62.39
8280;BME280;8335;42.646;23.380;2023-06-05T06:44:32;148041.97;;;26.23;60.13
8280;BME280;8335;42.646;23.380;2023-06-05T06:46:58;148048.22;;;26.25;60.57
8280;BME280;8335;42.646;23.380;2023-06-05T06:49:26;148213.03;;;26.92;58.10
8280;BME280;8335;42.646;23.380;2023-06-05T06:51:54;148395.56;;;27.66;54.50
8280;BME280;8335;42.646;23.380;2023-06-05T06:54:20;148376.69;;;27.58;55.21
8280;BME280;8335;42.646;23.380;2023-06-05T06:56:48;148315.00;;;27.33;56.11
8280;BME280;8335;42.646;23.380;2023-06-05T06:59:15;148347.72;;;27.47;54.89
8280;BME280;8335;42.646;23.380;2023-06-05T07:01:43;148274.75;;;27.17;56.02
8280;BME280;8335;42.646;23.380;2023-06-05T07:04:12;148233.16;;;27.00;56.96
8280;BME280;8335;42.646;23.380;2023-06-05T07:06:43;148289.84;;;27.23;56.37
8280;BME280;8335;42.646;23.380;2023-06-05T07:09:10;148253.38;;;27.08;56.59
8280;BME280;8335;42.646;23.380;2023-06-05T07:11:37;148181.63;;;26.79;56.62
8280;BME280;8335;42.646;23.380;2023-06-05T07:14:04;148093.56;;;26.44;58.69
8280;BME280;8335;42.646;23.380;2023-06-05T07:16:31;148001.69;;;26.06;58.30
8280;BME280;8335;42.646;23.380;2023-06-05T07:18:58;147958.97;;;25.89;60.76
8280;BME280;8335;42.646;23.380;2023-06-05T07:21:24;148084.75;;;26.40;58.39
8280;BME280;8335;42.646;23.380;2023-06-05T07:23:53;148038.16;;;26.21;58.89
8280;BME280;8335;42.646;23.380;2023-06-05T07:26:20;148011.78;;;26.11;59.92
8280;BME280;8335;42.646;23.380;2023-06-05T07:28:49;147984.09;;;25.99;60.47
8280;BME280;8335;42.646;23.380;2023-06-05T07:31:16;147991.66;;;26.02;59.95
8280;BME280;8335;42.646;23.380;2023-06-05T07:33:43;148043.22;;;26.23;60.12
8280;BME280;8335;42.646;23.380;2023-06-05T07:36:10;148145.09;;;26.65;59.91
8280;BME280;8335;42.646;23.380;2023-06-05T07:38:37;148184.13;;;26.80;57.12
8280;BME280;8335;42.646;23.380;2023-06-05T07:41:08;148236.97;;;27.02;56.87
8280;BME280;8335;42.646;23.380;2023-06-05T07:43:35;148205.50;;;26.89;57.20
8280;BME280;8335;42.646;23.380;2023-06-05T07:46:02;148176.56;;;26.77;57.40
8280;BME280;8335;42.646;23.380;2023-06-05T07:48:30;148121.22;;;26.55;57.89
8280;BME280;8335;42.646;23.380;2023-06-05T07:50:57;148299.91;;;27.27;55.92
8280;BME280;8335;42.646;23.380;2023-06-05T07:53:23;148348.97;;;27.47;54.26
8280;BME280;8335;42.646;23.380;2023-06-05T07:55:50;148301.16;;;27.28;55.05
8280;BME280;8335;42.646;23.380;2023-06-05T07:58:18;148248.31;;;27.06;55.69
8280;BME280;8335;42.646;23.380;2023-06-05T08:00:46;148297.38;;;27.26;56.25
8280;BME280;8335;42.646;23.380;2023-06-05T08:03:14;148331.38;;;27.40;55.42
8280;BME280;8335;42.646;23.380;2023-06-05T08:05:46;148417.00;;;27.75;53.84
8280;BME280;8335;42.646;23.380;2023-06-05T08:08:13;148560.56;;;28.33;51.87
8280;BME280;8335;42.646;23.380;2023-06-05T08:10:40;148527.75;;;28.19;51.54
8280;BME280;8335;42.646;23.380;2023-06-05T08:13:07;148584.47;;;28.42;52.29
8280;BME280;8335;42.646;23.380;2023-06-05T08:15:35;148599.59;;;28.48;52.23
8280;BME280;8335;42.646;23.380;2023-06-05T08:18:03;148670.09;;;28.77;51.29
8280;BME280;8335;42.646;23.380;2023-06-05T08:20:29;148615.97;;;28.55;51.04
8280;BME280;8335;42.646;23.380;2023-06-05T08:22:56;148571.91;;;28.37;51.14
8280;BME280;8335;42.646;23.380;2023-06-05T08:25:23;148411.97;;;27.73;54.00
8280;BME280;8335;42.646;23.380;2023-06-05T08:27:50;148453.50;;;27.89;52.45
8280;BME280;8335;42.646;23.380;2023-06-05T08:30:17;148473.63;;;27.97;52.53
8280;BME280;8335;42.646;23.380;2023-06-05T08:32:46;148493.78;;;28.06;54.04
8280;BME280;8335;42.646;23.380;2023-06-05T08:35:13;148454.75;;;27.90;53.73
8280;BME280;8335;42.646;23.380;2023-06-05T08:37:40;148506.38;;;28.11;51.32
8280;BME280;8335;42.646;23.380;2023-06-05T08:40:07;148564.31;;;28.34;51.41
8280;BME280;8335;42.646;23.380;2023-06-05T08:42:36;148427.03;;;27.79;53.01
8280;BME280;8335;42.646;23.380;2023-06-05T08:45:03;148360.31;;;27.52;53.11
8280;BME280;8335;42.646;23.380;2023-06-05T08:47:31;148209.28;;;26.91;55.67
8280;BME280;8335;42.646;23.380;2023-06-05T08:50:02;148141.34;;;26.63;56.29
8280;BME280;8335;42.646;23.380;2023-06-05T08:52:32;148117.44;;;26.53;57.05
8280;BME280;8335;42.646;23.380;2023-06-05T08:55:00;147914.91;;;25.71;61.02
8280;BME280;8335;42.646;23.380;2023-06-05T08:57:27;147908.63;;;25.69;60.01
8280;BME280;8335;42.646;23.380;2023-06-05T08:59:54;147858.34;;;25.48;61.75
8280;BME280;8335;42.646;23.380;2023-06-05T09:02:22;147730.13;;;24.96;62.39
8280;BME280;8335;42.646;23.380;2023-06-05T09:04:48;147618.34;;;24.51;63.92
8280;BME280;8335;42.646;23.380;2023-06-05T09:07:16;147511.56;;;24.08;66.83
8280;BME280;8335;42.646;23.380;2023-06-05T09:09:44;147452.50;;;23.84;65.77
8280;BME280;8335;42.646;23.380;2023-06-05T09:12:11;147413.59;;;23.68;66.62
8280;BME280;8335;42.646;23.380;2023-06-05T09:14:38;147396.03;;;23.61;67.39
8280;BME280;8335;42.646;23.380;2023-06-05T09:17:12;147305.63;;;23.24;69.01
8280;BME280;8335;42.646;23.380;2023-06-05T09:19:41;147257.94;;;23.05;67.92
8280;BME280;8335;42.646;23.380;2023-06-05T09:22:09;147242.84;;;22.99;68.78
8280;BME280;8335;42.646;23.380;2023-06-05T09:24:38;147186.38;;;22.76;70.05
8280;BME280;8335;42.646;23.380;2023-06-05T09:27:07;147087.25;;;22.36;71.33
8280;BME280;8335;42.646;23.380;2023-06-05T09:29:35;147069.69;;;22.29;72.87
8280;BME280;8335;42.646;23.380;2023-06-05T09:32:05;147049.63;;;22.20;73.00
8280;BME280;8335;42.646;23.380;2023-06-05T09:34:33;147003.22;;;22.02;73.23
8280;BME280;8335;42.646;23.380;2023-06-05T09:37:02;147024.56;;;22.10;76.23
8280;BME280;8335;42.646;23.380;2023-06-05T09:39:31;147018.28;;;22.08;78.05
8280;BME280;8335;42.646;23.380;2023-06-05T09:41:59;147055.94;;;22.23;78.81
8280;BME280;8335;42.646;23.380;2023-06-05T09:44:27;147032.06;;;22.13;78.17
8280;BME280;8335;42.646;23.380;2023-06-05T09:46:58;146945.50;;;21.78;78.56
8280;BME280;8335;42.646;23.380;2023-06-05T09:49:28;147024.56;;;22.10;79.25
8280;BME280;8335;42.646;23.380;2023-06-05T09:51:56;146914.22;;;21.65;79.18
8280;BME280;8335;42.646;23.380;2023-06-05T09:54:25;147043.38;;;22.18;79.51
8280;BME280;8335;42.646;23.380;2023-06-05T09:56:57;147053.44;;;22.22;79.31
8280;BME280;8335;42.646;23.380;2023-06-05T09:59:28;147057.19;;;22.23;79.24
8280;BME280;8335;42.646;23.380;2023-06-05T10:01:58;147088.56;;;22.36;78.45
8280;BME280;8335;42.646;23.380;2023-06-05T10:04:27;147139.94;;;22.57;78.42
8280;BME280;8335;42.646;23.380;2023-06-05T10:06:57;147163.78;;;22.67;78.34
8280;BME280;8335;42.646;23.380;2023-06-05T10:09:26;147128.69;;;22.52;78.94
8280;BME280;8335;42.646;23.380;2023-06-05T10:11:54;147132.44;;;22.54;77.66
8280;BME280;8335;42.646;23.380;2023-06-05T10:14:22;147088.56;;;22.36;78.79
8280;BME280;8335;42.646;23.380;2023-06-05T10:16:51;147163.78;;;22.67;76.93
8280;BME280;8335;42.646;23.380;2023-06-05T10:19:18;147205.19;;;22.84;75.23
8280;BME280;8335;42.646;23.380;2023-06-05T10:21:47;147247.91;;;23.01;74.30
8280;BME280;8335;42.646;23.380;2023-06-05T10:24:17;147281.78;;;23.15;73.15
8280;BME280;8335;42.646;23.380;2023-06-05T10:27:11;147303.13;;;23.23;73.66
8280;BME280;8335;42.646;23.380;2023-06-05T10:30:13;147308.13;;;23.25;74.27
8280;BME280;8335;42.646;23.380;2023-06-05T10:32:58;147320.69;;;23.30;73.48
8280;BME280;8335;42.646;23.380;2023-06-05T10:35:36;147344.53;;;23.40;71.63
8280;BME280;8335;42.646;23.380;2023-06-05T10:38:15;147340.75;;;23.39;69.78
8280;BME280;8335;42.646;23.380;2023-06-05T10:40:44;147372.16;;;23.51;70.82
8280;BME280;8335;42.646;23.380;2023-06-05T10:43:27;147396.03;;;23.61;68.76
8280;BME280;8335;42.646;23.380;2023-06-05T10:45:56;147401.03;;;23.63;69.12
8280;BME280;8335;42.646;23.380;2023-06-05T10:51:40;147434.94;;;23.77;74.41
8280;BME280;8335;42.646;23.380;2023-06-05T10:54:09;147463.84;;;23.88;72.79
8280;BME280;8335;42.646;23.380;2023-06-05T10:56:55;147504.00;;;24.05;73.07
8280;BME280;8335;42.646;23.380;2023-06-05T10:59:25;147529.13;;;24.15;71.67
8280;BME280;8335;42.646;23.380;2023-06-05T11:02:23;147574.38;;;24.33;75.30
8280;BME280;8335;42.646;23.380;2023-06-05T11:05:07;147627.13;;;24.55;74.93
8280;BME280;8335;42.646;23.380;2023-06-05T11:07:37;147667.28;;;24.71;73.19
8280;BME280;8335;42.646;23.380;2023-06-05T11:10:13;147692.44;;;24.81;72.94
8280;BME280;8335;42.646;23.380;2023-06-05T11:12:59;147694.97;;;24.82;72.53
8280;BME280;8335;42.646;23.380;2023-06-05T11:15:46;147722.63;;;24.93;68.49
8280;BME280;8335;42.646;23.380;2023-06-05T11:18:34;147766.63;;;25.11;68.72
8280;BME280;8335;42.646;23.380;2023-06-05T11:21:01;147771.63;;;25.13;70.24
8280;BME280;8335;42.646;23.380;2023-06-05T11:23:30;147793.03;;;25.22;70.98
8280;BME280;8335;42.646;23.380;2023-06-05T11:25:58;147831.97;;;25.38;67.68
8280;BME280;8335;42.646;23.380;2023-06-05T11:28:44;147874.69;;;25.55;64.72
8280;BME280;8335;42.646;23.380;2023-06-05T11:31:11;147892.28;;;25.62;64.55
8280;BME280;8335;42.646;23.380;2023-06-05T11:33:39;147913.63;;;25.71;65.22
8280;BME280;8335;42.646;23.380;2023-06-05T11:36:06;147946.38;;;25.84;63.56
8280;BME280;8335;42.646;23.380;2023-06-05T11:38:51;147950.13;;;25.86;64.13
8280;BME280;8335;42.646;23.380;2023-06-05T11:41:18;147955.22;;;25.88;62.84
8280;BME280;8335;42.646;23.380;2023-06-05T11:43:45;147986.66;;;26.00;61.74
8280;BME280;8335;42.646;23.380;2023-06-05T11:46:12;148041.97;;;26.23;61.65
8280;BME280;8335;42.646;23.380;2023-06-05T11:48:45;148072.09;;;26.35;59.61
8280;BME280;8335;42.646;23.380;2023-06-05T11:51:12;148161.44;;;26.71;58.96
8280;BME280;8335;42.646;23.380;2023-06-05T11:53:45;148172.78;;;26.76;58.73
8280;BME280;8335;42.646;23.380;2023-06-05T11:56:14;148240.72;;;27.03;59.08
8280;BME280;8335;42.646;23.380;2023-06-05T11:58:42;148201.72;;;26.87;56.59
8280;BME280;8335;42.646;23.380;2023-06-05T12:01:12;148206.75;;;26.89;55.71
8280;BME280;8335;42.646;23.380;2023-06-05T12:03:40;148097.34;;;26.45;58.88
8280;BME280;8335;42.646;23.380;2023-06-05T12:06:07;148072.09;;;26.35;59.68
8280;BME280;8335;42.646;23.380;2023-06-05T12:08:35;148035.66;;;26.20;59.84
8280;BME280;8335;42.646;23.380;2023-06-05T12:11:19;147977.81;;;25.97;58.96
8280;BME280;8335;42.646;23.380;2023-06-05T12:13:48;147912.38;;;25.70;58.88
8280;BME280;8335;42.646;23.380;2023-06-05T12:16:15;147829.47;;;25.37;60.03
8280;BME280;8335;42.646;23.380;2023-06-05T12:18:43;147745.22;;;25.03;61.09
8280;BME280;8335;42.646;23.380;2023-06-05T12:21:19;147787.97;;;25.20;59.52
8280;BME280;8335;42.646;23.380;2023-06-05T12:23:47;147834.47;;;25.39;57.94
8280;BME280;8335;42.646;23.380;2023-06-05T12:26:16;147843.25;;;25.42;59.06
8280;BME280;8335;42.646;23.380;2023-06-05T12:28:44;147932.53;;;25.78;58.76
8280;BME280;8335;42.646;23.380;2023-06-05T12:31:31;147835.72;;;25.39;60.92
8280;BME280;8335;42.646;23.380;2023-06-05T12:33:58;147786.72;;;25.19;60.54
8280;BME280;8335;42.646;23.380;2023-06-05T12:36:24;147765.38;;;25.11;61.06
8280;BME280;8335;42.646;23.380;2023-06-05T12:38:54;147794.28;;;25.22;59.29
8280;BME280;8335;42.646;23.380;2023-06-05T12:41:22;147762.84;;;25.10;59.07
8280;BME280;8335;42.646;23.380;2023-06-05T12:43:58;147774.13;;;25.14;60.07
8280;BME280;8335;42.646;23.380;2023-06-05T12:46:26;147780.44;;;25.17;59.46
8280;BME280;8335;42.646;23.380;2023-06-05T12:48:53;147784.22;;;25.18;59.03
8280;BME280;8335;42.646;23.380;2023-06-05T12:51:20;147808.06;;;25.28;58.93
8280;BME280;8335;42.646;23.380;2023-06-05T12:53:47;147835.72;;;25.39;60.58
8280;BME280;8335;42.646;23.380;2023-06-05T12:56:14;147808.06;;;25.28;61.14
8280;BME280;8335;42.646;23.380;2023-06-05T12:58:42;147782.97;;;25.18;59.52
8280;BME280;8335;42.646;23.380;2023-06-05T13:01:09;147764.09;;;25.10;61.03
8280;BME280;8335;42.646;23.380;2023-06-05T13:03:37;147760.34;;;25.09;60.44
8280;BME280;8335;42.646;23.380;2023-06-05T13:06:04;147750.28;;;25.05;59.33
8280;BME280;8335;42.646;23.380;2023-06-05T13:08:31;147689.94;;;24.80;60.66
8280;BME280;8335;42.646;23.380;2023-06-05T13:10:58;147691.19;;;24.81;60.74